Nyk Aphrodite — HPAZ — position and weather

sailwx.info

Track history (hours):
 
Tides and Currents Weather Stations Pressure Air Temp Water Temp Dewpoint Dewpoint Depression Visibility Wind Speed Wind Dir Waves Ship Positions

Nyk Aphrodite

Last reported at 2017-Dec-15 23:02 UTC. Time now 2017-Dec-18 16:43 UTC.
Position N 34°46' E 139°53'.

Length 299 m; draft 10.8 m.

Type: Cargo ship. MMSI: 351554000.

Date/timePositionNaut miles runAvg speedWind from/ knotsBaromVisibWave heightAir tempDewpointWater temp
2017-Dec-15 23:02N 34°46' E 139°53'120.3
2017-Dec-15 22:58N 34°45' E 139°52'1419.9
2017-Dec-15 22:15N 34°39' E 139°36'1421.2
2017-Dec-15 21:36N 34°35' E 139°20'220.6
2017-Dec-15 21:30N 34°35' E 139°18'1221.2
2017-Dec-15 20:56N 34°29' E 139°05'1321.1
2017-Dec-15 20:19N 34°23' E 138°51'621.2
2017-Dec-15 20:00N 34°20' E 138°44'1121.1
2017-Dec-15 19:30N 34°15' E 138°32'1020.7
2017-Dec-15 19:00N 34°10' E 138°21'1220.2
2017-Dec-15 18:25N 34°05' E 138°08'  
2017-Dec-12 01:10N 31°06' E 122°19'214.6
2017-Dec-12 01:00N 31°07' E 122°17'814.9
2017-Dec-12 00:30N 31°12' E 122°09'714.4
2017-Dec-12 00:00N 31°14' E 122°02'714.1
2017-Dec-11 23:31N 31°16' E 121°54'814.3
2017-Dec-11 22:58N 31°18' E 121°45'612.0
2017-Dec-11 22:30N 31°21' E 121°39'4 7.3
2017-Dec-11 21:57N 31°22' E 121°35'0 0.0
2017-Dec-11 21:15N 31°22' E 121°35'0 0.0
2017-Dec-10 08:45N 31°22' E 121°35'25 7.8
2017-Dec-10 05:35N 31°14' E 122°02'110.1
2017-Dec-10 05:30N 31°14' E 122°03'12 9.2
2017-Dec-10 04:12N 31°08' E 122°15'2 9.2
2017-Dec-10 03:59N 31°07' E 122°17'5 9.1
2017-Dec-10 03:26N 31°06' E 122°23'5 8.1
2017-Dec-10 02:51N 31°08' E 122°28'  
2017-Dec-07 13:24N 41°16' E 140°10'820.3
2017-Dec-07 13:00N 41°22' E 140°18'1020.1
2017-Dec-07 12:31N 41°28' E 140°28'1020.9
2017-Dec-07 12:01N 41°33' E 140°41'1122.1
2017-Dec-07 11:31N 41°38' E 140°53'1121.6
2017-Dec-07 11:00N 41°40' E 141°08'1121.7
2017-Dec-07 10:29N 41°41' E 141°23'1020.4
2017-Dec-07 10:00N 41°42' E 141°36'  
Track history (hours):
 
Tides and Currents Weather Stations Pressure Air Temp Water Temp Dewpoint Dewpoint Depression Visibility Wind Speed Wind Dir Waves Ship Positions

Nyk Aphrodite

Last reported at 2017-Dec-15 23:02 UTC. Time now 2017-Dec-18 16:43 UTC.
Position N 34°46' E 139°53'.

Length 299 m; draft 10.8 m.

Type: Cargo ship. MMSI: 351554000.

Date/timePositionNaut miles runAvg speedWind from/ knotsBaromVisibWave heightAir tempDewpointWater temp
2017-Dec-15 23:02N 34°46' E 139°53'120.3
2017-Dec-15 22:58N 34°45' E 139°52'1419.9
2017-Dec-15 22:15N 34°39' E 139°36'1421.2
2017-Dec-15 21:36N 34°35' E 139°20'220.6
2017-Dec-15 21:30N 34°35' E 139°18'1221.2
2017-Dec-15 20:56N 34°29' E 139°05'1321.1
2017-Dec-15 20:19N 34°23' E 138°51'621.2
2017-Dec-15 20:00N 34°20' E 138°44'1121.1
2017-Dec-15 19:30N 34°15' E 138°32'1020.7
2017-Dec-15 19:00N 34°10' E 138°21'1220.2
2017-Dec-15 18:25N 34°05' E 138°08'  
2017-Dec-12 01:10N 31°06' E 122°19'214.6
2017-Dec-12 01:00N 31°07' E 122°17'814.9
2017-Dec-12 00:30N 31°12' E 122°09'714.4
2017-Dec-12 00:00N 31°14' E 122°02'714.1
2017-Dec-11 23:31N 31°16' E 121°54'814.3
2017-Dec-11 22:58N 31°18' E 121°45'612.0
2017-Dec-11 22:30N 31°21' E 121°39'4 7.3
2017-Dec-11 21:57N 31°22' E 121°35'0 0.0
2017-Dec-11 21:15N 31°22' E 121°35'0 0.0
2017-Dec-10 08:45N 31°22' E 121°35'25 7.8
2017-Dec-10 05:35N 31°14' E 122°02'110.1
2017-Dec-10 05:30N 31°14' E 122°03'12 9.2
2017-Dec-10 04:12N 31°08' E 122°15'2 9.2
2017-Dec-10 03:59N 31°07' E 122°17'5 9.1
2017-Dec-10 03:26N 31°06' E 122°23'5 8.1
2017-Dec-10 02:51N 31°08' E 122°28'  
2017-Dec-07 13:24N 41°16' E 140°10'820.3
2017-Dec-07 13:00N 41°22' E 140°18'1020.1
2017-Dec-07 12:31N 41°28' E 140°28'1020.9
2017-Dec-07 12:01N 41°33' E 140°41'1122.1
2017-Dec-07 11:31N 41°38' E 140°53'1121.6
2017-Dec-07 11:00N 41°40' E 141°08'1121.7
2017-Dec-07 10:29N 41°41' E 141°23'1020.4
2017-Dec-07 10:00N 41°42' E 141°36'  

Dump ship's entire track history